Time;durP1;ratioP1;P1;durP2;ratioP2;P2;SDS_P1;SDS_P2;PMS_P1;PMS_P2;Temp;Humidity;BMP_temperature;BMP_pressure;BME280_temperature;BME280_humidity;BME280_pressure;Samples;Min_cycle;Max_cycle;Signal;HPM_P1;HPM_P2
2022/05/29 00:02:00;;;;;;;1.00;0.97;;;13.50;61.80;13.70;96139.00;;;;5033591;28;20696;-84
2022/05/29 00:04:29;;;;;;;2.87;1.10;;;13.50;61.80;13.70;96135.00;;;;5029879;28;20604;-84
2022/05/29 00:06:58;;;;;;;1.47;1.37;;;13.50;61.70;13.70;96141.00;;;;5026366;28;20188;-84
2022/05/29 00:09:34;;;;;;;0.90;0.90;;;13.50;61.80;13.60;96142.00;;;;5045190;28;20224;-84
2022/05/29 00:12:04;;;;;;;1.50;1.20;;;13.40;62.00;13.60;96143.00;;;;5046678;28;20286;-84
2022/05/29 00:14:33;;;;;;;1.10;1.00;;;13.40;62.20;13.50;96138.00;;;;5038534;28;20221;-84
2022/05/29 00:17:00;;;;;;;1.53;1.13;;;13.30;62.30;13.50;96136.00;;;;5033675;28;20193;-84
2022/05/29 00:19:30;;;;;;;2.10;1.10;;;13.30;62.40;13.40;96135.00;;;;5034082;28;20208;-84
2022/05/29 00:21:59;;;;;;;1.13;1.03;;;13.30;62.60;13.40;96128.00;;;;5033222;28;20193;-84
2022/05/29 00:24:26;;;;;;;1.27;1.13;;;13.20;62.40;13.40;96122.00;;;;5043195;28;20240;-81
2022/05/29 00:26:54;;;;;;;1.10;1.00;;;13.20;62.50;13.30;96122.00;;;;5048943;28;20617;-81
2022/05/29 00:29:22;;;;;;;1.03;1.00;;;13.20;62.70;13.30;96128.00;;;;5047498;28;20215;-81
2022/05/29 00:31:49;;;;;;;1.07;0.97;;;13.10;62.90;13.30;96125.00;;;;5036774;28;20204;-81
2022/05/29 00:34:17;;;;;;;1.50;1.17;;;13.10;63.10;13.30;96119.00;;;;5043617;28;20219;-81
2022/05/29 00:36:45;;;;;;;1.30;1.07;;;13.10;63.20;13.30;96119.00;;;;5045922;28;20197;-81
2022/05/29 00:39:17;;;;;;;1.13;0.93;;;13.10;63.40;13.30;96111.00;;;;5057754;28;20336;-81
2022/05/29 00:41:46;;;;;;;1.10;1.00;;;13.10;63.50;13.30;96110.00;;;;5027536;28;20384;-81
2022/05/29 00:44:17;;;;;;;1.10;1.00;;;13.00;63.50;13.30;96091.00;;;;5035631;28;20308;-81
2022/05/29 00:46:48;;;;;;;1.37;1.33;;;13.00;63.60;13.20;96091.00;;;;5049018;28;20223;-81
2022/05/29 00:49:17;;;;;;;1.20;1.10;;;13.00;63.60;13.20;96088.00;;;;5041222;28;20671;-81
2022/05/29 00:51:51;;;;;;;1.37;0.93;;;12.70;63.20;13.20;96096.00;;;;5040335;28;21325;-81
2022/05/29 00:54:19;;;;;;;1.53;1.20;;;13.00;63.40;13.20;96103.00;;;;5037984;28;20236;-80
2022/05/29 00:56:48;;;;;;;1.23;1.10;;;12.90;63.20;13.10;96084.00;;;;5040305;28;20209;-81
2022/05/29 00:59:22;;;;;;;1.73;1.33;;;13.30;63.40;13.10;96091.00;;;;5039667;28;20204;-81
2022/05/29 01:01:50;;;;;;;1.30;1.10;;;12.90;63.10;13.00;96076.00;;;;5039501;28;20193;-81
2022/05/29 01:04:18;;;;;;;1.60;0.87;;;12.90;63.10;13.00;96087.00;;;;5039835;28;20721;-81
2022/05/29 01:06:46;;;;;;;0.87;0.87;;;13.80;63.80;13.00;96081.00;;;;5041705;28;20204;-81
2022/05/29 01:09:15;;;;;;;1.20;1.10;;;12.80;63.30;12.90;96082.00;;;;5035135;28;20304;-81
2022/05/29 01:12:10;;;;;;;1.37;1.17;;;12.80;63.30;12.80;96082.00;;;;5036152;28;20241;-81
2022/05/29 01:14:56;;;;;;;1.83;1.73;;;12.70;63.60;12.80;96078.00;;;;5038636;28;20276;-82
2022/05/29 01:17:38;;;;;;;1.73;1.60;;;12.70;63.70;12.70;96064.00;;;;5039870;28;20280;-81
2022/05/29 01:20:40;;;;;;;1.10;1.00;;;12.60;64.00;12.70;96065.00;;;;5042750;28;20661;-81
2022/05/29 01:23:58;;;;;;;2.10;1.03;;;12.60;64.40;12.60;96058.00;;;;5037964;28;20230;-81
2022/05/29 01:27:11;;;;;;;1.53;1.10;;;12.50;64.30;12.50;96053.00;;;;5046251;28;20264;-81
2022/05/29 01:29:52;;;;;;;1.07;0.90;;;12.50;64.40;12.50;96035.00;;;;5046315;28;20272;-81
2022/05/29 01:32:34;;;;;;;2.73;1.30;;;12.40;64.10;12.40;96056.00;;;;5038332;28;20259;-81
2022/05/29 01:35:12;;;;;;;1.30;1.20;;;12.40;64.30;12.40;96046.00;;;;5038373;28;20201;-81
2022/05/29 01:37:51;;;;;;;1.00;1.00;;;12.40;64.40;12.40;96043.00;;;;5049105;28;20692;-82
2022/05/29 01:40:30;;;;;;;1.40;1.30;;;12.30;64.50;12.40;96041.00;;;;5058352;28;20286;-82
2022/05/29 01:43:11;;;;;;;1.33;1.20;;;12.30;64.60;12.40;96040.00;;;;5058582;28;20212;-82
2022/05/29 01:45:54;;;;;;;1.50;1.10;;;12.30;64.60;12.40;96028.00;;;;5050030;28;20291;-81
2022/05/29 01:48:37;;;;;;;1.93;1.27;;;12.30;64.50;12.40;96025.00;;;;5058416;28;20212;-81
2022/05/29 01:51:14;;;;;;;1.37;1.27;;;12.30;64.40;12.40;96019.00;;;;5042070;28;20197;-81
2022/05/29 01:53:45;;;;;;;1.63;1.20;;;12.20;64.30;12.30;96012.00;;;;5038291;28;20182;-81
2022/05/29 01:56:20;;;;;;;1.43;1.33;;;12.20;64.40;12.30;96012.00;;;;5039306;28;20197;-81
2022/05/29 01:58:56;;;;;;;1.67;1.50;;;12.20;64.60;12.30;96006.00;;;;5038595;28;20227;-81
2022/05/29 02:01:32;;;;;;;1.20;1.20;;;12.20;64.80;12.30;96007.00;;;;5039642;28;20197;-81
2022/05/29 02:04:08;;;;;;;1.60;1.30;;;12.10;64.80;12.30;95998.00;;;;5047100;28;20245;-81
2022/05/29 02:09:33;;;;;;;2.20;1.60;;;12.10;65.80;12.20;95994.00;;;;5038058;28;20700;-81
2022/05/29 02:12:04;;;;;;;1.23;1.17;;;12.10;65.80;12.20;95985.00;;;;5037353;28;20280;-81
2022/05/29 02:14:40;;;;;;;2.77;1.50;;;12.10;65.10;12.10;95977.00;;;;5045643;28;20204;-81
2022/05/29 02:17:15;;;;;;;1.63;1.50;;;12.00;65.20;12.10;95966.00;;;;5033210;28;20221;-81
2022/05/29 02:19:49;;;;;;;1.23;1.13;;;12.00;65.40;12.10;95965.00;;;;5040796;28;20188;-81
2022/05/29 02:22:23;;;;;;;1.30;1.20;;;12.00;65.50;12.10;95961.00;;;;5046584;28;20335;-81
2022/05/29 02:24:54;;;;;;;1.20;1.10;;;12.00;65.60;12.10;95955.00;;;;5036105;28;20213;-81
2022/05/29 02:27:31;;;;;;;1.40;1.30;;;12.00;65.70;12.10;95947.00;;;;5036794;28;20232;-81
2022/05/29 02:30:00;;;;;;;2.27;1.40;;;12.00;65.60;12.10;95941.00;;;;5042151;28;20232;-81
2022/05/29 02:32:39;;;;;;;1.50;1.40;;;12.00;65.40;12.10;95945.00;;;;5047709;28;20227;-81
2022/05/29 02:35:17;;;;;;;1.77;1.67;;;12.00;65.30;12.00;95942.00;;;;5034409;28;20256;-81
2022/05/29 02:37:51;;;;;;;1.43;1.30;;;11.90;65.50;12.00;95936.00;;;;5039442;28;20275;-80
2022/05/29 02:40:28;;;;;;;1.20;1.10;;;11.90;65.50;12.00;95929.00;;;;5034795;28;20197;-81
2022/05/29 02:43:09;;;;;;;1.40;1.23;;;11.90;65.50;11.90;95921.00;;;;5029647;28;20193;-81
2022/05/29 02:45:49;;;;;;;0.80;0.73;;;11.80;65.50;11.90;95921.00;;;;5026792;28;20236;-82
2022/05/29 02:48:32;;;;;;;1.20;1.10;;;11.80;65.40;11.90;95921.00;;;;5035958;28;20224;-81
2022/05/29 02:51:09;;;;;;;1.10;1.10;;;11.80;65.50;11.80;95919.00;;;;5044136;28;20568;-81
2022/05/29 02:53:36;;;;;;;1.33;1.20;;;11.70;65.40;11.80;95913.00;;;;5037602;28;20558;-82
2022/05/29 02:56:06;;;;;;;1.13;1.03;;;11.70;65.50;11.70;95913.00;;;;5035456;28;20287;-82
2022/05/29 02:58:36;;;;;;;1.27;1.00;;;11.70;65.60;11.70;95901.00;;;;5038859;28;20217;-82
2022/05/29 03:01:27;;;;;;;1.93;1.20;;;11.60;65.70;11.70;95907.00;;;;5047862;28;20189;-82
2022/05/29 03:04:23;;;;;;;1.00;1.00;;;11.60;66.20;11.70;95916.00;;;;5037781;28;20268;-81
2022/05/29 03:07:02;;;;;;;2.77;1.13;;;11.60;66.30;11.70;95908.00;;;;5037552;28;20221;-83
2022/05/29 03:09:47;;;;;;;1.77;1.10;;;11.50;66.10;11.70;95901.00;;;;5036238;28;20619;-85
2022/05/29 03:12:30;;;;;;;1.37;1.27;;;11.50;66.20;11.70;95904.00;;;;5036726;28;20197;-83
2022/05/29 03:15:18;;;;;;;1.00;1.00;;;11.50;66.40;11.60;95897.00;;;;5018744;28;20206;-85
2022/05/29 03:17:56;;;;;;;1.47;1.20;;;11.50;66.60;11.60;95899.00;;;;5043866;28;20252;-84
2022/05/29 03:20:45;;;;;;;1.73;0.97;;;11.60;66.50;11.60;95901.00;;;;5036662;28;20197;-84
2022/05/29 03:23:24;;;;;;;1.40;1.30;;;11.50;66.50;11.60;95898.00;;;;5026295;28;20638;-84
2022/05/29 03:26:01;;;;;;;1.50;1.17;;;11.40;66.30;11.50;95893.00;;;;5034170;28;20279;-84
2022/05/29 03:28:39;;;;;;;1.30;1.07;;;11.40;66.40;11.50;95902.00;;;;5032948;28;20221;-84
2022/05/29 03:31:15;;;;;;;1.20;1.07;;;11.40;66.50;11.50;95910.00;;;;5035529;28;20288;-84
2022/05/29 03:33:45;;;;;;;1.83;1.10;;;11.40;66.60;11.50;95914.00;;;;5035688;28;20247;-83
2022/05/29 03:36:16;;;;;;;1.60;1.20;;;11.30;66.50;11.50;95917.00;;;;5035182;28;20197;-83
2022/05/29 03:38:43;;;;;;;0.90;0.90;;;11.40;66.80;11.40;95912.00;;;;5045262;28;20625;-83
2022/05/29 03:41:14;;;;;;;1.30;1.03;;;11.30;66.90;11.40;95908.00;;;;5043960;28;20623;-84
2022/05/29 03:43:43;;;;;;;1.40;0.90;;;11.30;66.90;11.40;95906.00;;;;5035072;28;20202;-84
2022/05/29 03:46:10;;;;;;;1.40;1.30;;;11.30;66.70;11.40;95920.00;;;;5031863;28;20232;-84
2022/05/29 03:48:37;;;;;;;0.90;0.90;;;11.30;66.90;11.40;95913.00;;;;5034322;28;20228;-83
2022/05/29 03:51:06;;;;;;;1.87;1.40;;;11.30;66.90;11.40;95923.00;;;;5032990;28;20201;-84
2022/05/29 03:53:35;;;;;;;2.40;1.30;;;11.30;67.10;11.40;95912.00;;;;5033172;28;20197;-84
2022/05/29 03:56:04;;;;;;;1.27;1.17;;;11.20;67.00;11.40;95915.00;;;;5028868;28;20225;-84
2022/05/29 03:58:34;;;;;;;1.23;1.13;;;11.20;67.20;11.40;95919.00;;;;5034675;28;20217;-84
2022/05/29 04:01:02;;;;;;;2.70;1.40;;;11.20;67.30;11.30;95919.00;;;;5030516;28;20201;-84
2022/05/29 04:03:30;;;;;;;1.40;1.30;;;11.20;67.30;11.30;95916.00;;;;5033429;28;20193;-84
2022/05/29 04:05:57;;;;;;;2.47;1.33;;;11.20;67.30;11.30;95916.00;;;;5027153;28;20259;-84
2022/05/29 04:13:55;;;;;;;1.20;1.20;;;11.10;68.00;11.30;95907.00;;;;5027712;28;20216;-85
2022/05/29 04:16:23;;;;;;;0.80;0.80;;;11.10;68.20;11.30;95893.00;;;;5035196;28;20209;-85
2022/05/29 04:18:50;;;;;;;1.07;0.90;;;11.10;68.30;11.30;95894.00;;;;5030308;28;20223;-84
2022/05/29 04:21:17;;;;;;;1.20;1.20;;;11.20;68.50;11.30;95889.00;;;;5038776;28;20217;-84
2022/05/29 04:23:44;;;;;;;1.03;1.03;;;11.20;68.70;11.40;95887.00;;;;5037196;28;20197;-84
2022/05/29 04:26:15;;;;;;;1.00;1.00;;;11.20;68.80;11.40;95888.00;;;;5037454;28;20236;-85
2022/05/29 04:28:42;;;;;;;1.07;1.07;;;11.20;68.90;11.40;95881.00;;;;5037449;28;20213;-84
2022/05/29 04:31:10;;;;;;;0.97;0.97;;;11.20;68.80;11.50;95884.00;;;;5035999;28;20288;-85
2022/05/29 04:33:38;;;;;;;1.37;1.27;;;11.30;69.10;11.50;95875.00;;;;5035690;28;20213;-85
2022/05/29 04:36:06;;;;;;;1.53;1.40;;;11.30;69.10;11.50;95873.00;;;;5036842;28;20239;-84
2022/05/29 04:38:33;;;;;;;1.60;1.37;;;11.30;69.20;11.60;95873.00;;;;5035028;28;20299;-85
2022/05/29 04:41:07;;;;;;;1.17;1.17;;;11.40;69.20;11.60;95869.00;;;;5037241;28;20201;-84
2022/05/29 04:43:36;;;;;;;1.00;1.00;;;11.40;69.50;11.70;95872.00;;;;5037502;28;20197;-84
2022/05/29 04:46:04;;;;;;;1.37;1.27;;;11.40;69.60;11.70;95871.00;;;;5037630;28;20312;-85
2022/05/29 04:48:32;;;;;;;1.50;1.40;;;11.50;69.70;11.80;95871.00;;;;5053733;28;20271;-86
2022/05/29 04:51:02;;;;;;;1.17;1.13;;;11.50;69.80;11.80;95881.00;;;;5046448;28;20192;-83
2022/05/29 04:53:32;;;;;;;1.50;1.40;;;11.60;69.90;11.90;95866.00;;;;5041217;28;20217;-84
2022/05/29 04:56:03;;;;;;;1.30;1.17;;;11.60;70.00;11.90;95862.00;;;;5038129;28;20465;-84
2022/05/29 04:58:31;;;;;;;0.90;0.90;;;11.70;70.10;12.00;95863.00;;;;5038203;28;20225;-84
2022/05/29 05:01:02;;;;;;;1.40;1.03;;;11.70;70.20;12.00;95860.00;;;;5046836;28;20650;-85
2022/05/29 05:03:30;;;;;;;1.43;1.20;;;11.70;70.20;12.10;95852.00;;;;5058731;28;20303;-84
2022/05/29 05:05:59;;;;;;;1.27;1.17;;;11.80;70.20;12.10;95852.00;;;;5042423;28;20692;-84
2022/05/29 05:08:27;;;;;;;1.27;1.17;;;11.80;70.40;12.20;95858.00;;;;5051976;28;20684;-84
2022/05/29 05:10:54;;;;;;;3.40;1.30;;;11.90;70.40;12.20;95851.00;;;;5042486;28;20204;-85
2022/05/29 05:13:21;;;;;;;2.00;1.23;;;12.00;70.50;12.30;95858.00;;;;5027135;28;20255;-84
2022/05/29 05:15:48;;;;;;;1.97;1.40;;;12.00;70.50;12.40;95858.00;;;;5037772;28;20650;-84
2022/05/29 05:18:17;;;;;;;1.50;1.40;;;12.10;70.60;12.40;95864.00;;;;5043989;28;20251;-84
2022/05/29 05:20:44;;;;;;;1.57;1.10;;;12.10;70.60;12.50;95868.00;;;;5055835;28;20707;-85
2022/05/29 05:23:11;;;;;;;1.57;1.47;;;12.20;70.60;12.60;95868.00;;;;5043234;28;20232;-84
2022/05/29 05:25:39;;;;;;;1.00;1.00;;;12.30;70.60;12.60;95864.00;;;;5038737;28;20231;-85
2022/05/29 05:28:06;;;;;;;1.10;1.00;;;12.30;70.50;12.70;95868.00;;;;5047688;28;20694;-84
2022/05/29 05:30:34;;;;;;;2.20;1.57;;;12.40;70.50;12.80;95876.00;;;;5045643;28;20291;-84
2022/05/29 05:33:01;;;;;;;1.40;1.23;;;12.50;70.50;12.90;95869.00;;;;5045974;28;20197;-86
2022/05/29 05:35:32;;;;;;;2.07;1.20;;;12.50;70.40;13.00;95871.00;;;;5052157;28;20235;-84
2022/05/29 05:37:59;;;;;;;1.20;1.10;;;12.60;70.50;13.00;95881.00;;;;5043217;28;20235;-85
2022/05/29 05:40:31;;;;;;;1.30;1.17;;;12.70;70.40;13.10;95875.00;;;;5051314;28;20645;-84
2022/05/29 05:43:01;;;;;;;0.97;0.97;;;12.70;70.30;13.20;95880.00;;;;5036808;28;20673;-85
2022/05/29 05:45:28;;;;;;;1.93;1.23;;;12.80;70.40;13.30;95879.00;;;;5048305;28;20709;-84
2022/05/29 05:47:55;;;;;;;1.00;1.00;;;12.90;70.30;13.40;95883.00;;;;5043460;28;20217;-84
2022/05/29 05:50:22;;;;;;;1.20;1.10;;;13.00;70.20;13.40;95876.00;;;;5036417;28;20620;-85
2022/05/29 05:52:51;;;;;;;2.43;1.50;;;13.00;70.20;13.60;95872.00;;;;5036137;28;20483;-85
2022/05/29 05:55:18;;;;;;;2.00;1.83;;;13.20;70.30;13.70;95882.00;;;;5029179;28;20201;-84
2022/05/29 05:57:45;;;;;;;1.60;1.30;;;13.20;70.20;13.80;95881.00;;;;5038393;28;20374;-85
2022/05/29 06:00:18;;;;;;;1.50;1.30;;;13.30;70.40;13.90;95880.00;;;;5051039;28;20196;-85
2022/05/29 06:02:46;;;;;;;1.20;1.20;;;13.40;70.10;14.10;95881.00;;;;5044086;28;20205;-85
2022/05/29 06:05:16;;;;;;;2.23;2.03;;;13.50;70.20;14.20;95892.00;;;;5040758;28;20299;-84
2022/05/29 06:07:43;;;;;;;1.97;1.20;;;13.70;70.00;14.40;95886.00;;;;5036393;28;20371;-84
2022/05/29 06:10:13;;;;;;;2.03;1.30;;;13.80;69.70;14.60;95882.00;;;;5034736;28;20625;-85
2022/05/29 06:12:42;;;;;;;1.40;1.30;;;13.90;69.70;14.70;95884.00;;;;5042145;28;20193;-84
2022/05/29 06:15:10;;;;;;;1.73;1.10;;;14.10;69.90;14.90;95883.00;;;;5054636;28;20219;-84
2022/05/29 06:17:37;;;;;;;2.63;1.20;;;14.30;69.80;15.10;95884.00;;;;5039976;28;20385;-84
2022/05/29 06:20:07;;;;;;;1.97;1.10;;;14.40;69.30;15.30;95885.00;;;;5046464;28;20653;-84
2022/05/29 06:22:37;;;;;;;3.63;1.10;;;14.60;69.60;15.50;95891.00;;;;5031706;28;20650;-84
2022/05/29 06:25:07;;;;;;;1.93;1.00;;;14.80;69.00;15.70;95898.00;;;;5039970;28;20188;-85
2022/05/29 06:27:41;;;;;;;1.00;0.90;;;14.90;68.80;15.90;95900.00;;;;5037353;28;20785;-85
2022/05/29 06:30:15;;;;;;;0.70;0.70;;;15.10;68.50;16.10;95898.00;;;;5046062;28;20227;-85
2022/05/29 06:32:46;;;;;;;1.30;1.20;;;15.30;68.50;16.30;95893.00;;;;5037768;28;20212;-84
2022/05/29 06:35:16;;;;;;;2.13;1.20;;;15.50;67.80;16.50;95898.00;;;;5032384;28;20256;-84
2022/05/29 06:37:43;;;;;;;1.10;0.97;;;15.70;67.10;16.70;95897.00;;;;5034875;28;20243;-86
2022/05/29 06:40:13;;;;;;;1.63;1.20;;;15.90;67.20;16.90;95895.00;;;;5037137;28;20197;-84
2022/05/29 06:42:42;;;;;;;1.83;1.20;;;16.00;66.90;17.10;95900.00;;;;5044392;28;20204;-84
2022/05/29 06:45:11;;;;;;;1.00;1.00;;;16.20;66.70;17.30;95903.00;;;;5040704;28;20201;-84
2022/05/29 06:47:39;;;;;;;1.00;0.93;;;16.40;66.40;17.40;95906.00;;;;5038152;28;20304;-84
2022/05/29 06:50:08;;;;;;;1.80;0.87;;;16.50;66.10;17.60;95901.00;;;;5036881;28;20232;-86
2022/05/29 06:52:35;;;;;;;1.40;1.10;;;16.70;65.50;17.70;95902.00;;;;5047187;28;20288;-83
2022/05/29 06:55:05;;;;;;;1.83;1.43;;;16.80;65.20;17.90;95907.00;;;;5036407;28;20832;-84
2022/05/29 06:57:43;;;;;;;1.20;1.03;;;16.90;65.00;18.00;95908.00;;;;5053023;28;20654;-84
2022/05/29 07:08:35;;;;;;;1.20;1.10;;;17.40;63.30;18.40;95886.00;;;;5035658;28;20660;-84
2022/05/29 07:11:08;;;;;;;1.17;1.10;;;17.50;63.30;18.50;95889.00;;;;5039175;28;20636;-84
2022/05/29 07:13:37;;;;;;;1.23;1.00;;;17.60;62.50;18.50;95889.00;;;;5046566;28;20208;-82
2022/05/29 07:16:06;;;;;;;1.20;1.10;;;17.60;62.10;18.50;95908.00;;;;5042281;28;20571;-83
2022/05/29 07:18:33;;;;;;;1.20;1.10;;;17.70;61.50;18.60;95905.00;;;;5037580;28;20296;-82
2022/05/29 07:21:02;;;;;;;1.70;1.00;;;17.70;61.50;18.70;95902.00;;;;5050066;28;20225;-82
2022/05/29 07:23:30;;;;;;;0.90;0.90;;;17.80;61.60;18.70;95898.00;;;;5051081;28;20189;-83
2022/05/29 07:25:57;;;;;;;1.60;1.10;;;17.90;61.10;18.80;95892.00;;;;5036680;28;20217;-84
2022/05/29 07:28:24;;;;;;;1.20;1.10;;;17.90;61.00;18.90;95897.00;;;;5039405;28;20797;-83
2022/05/29 07:30:54;;;;;;;1.13;0.90;;;18.00;60.80;19.10;95903.00;;;;5037565;28;20197;-85
2022/05/29 07:33:25;;;;;;;1.27;0.83;;;18.10;61.10;19.20;95898.00;;;;5037969;28;20209;-82
2022/05/29 07:35:52;;;;;;;2.27;1.00;;;18.20;61.30;19.30;95902.00;;;;5036775;28;20228;-85
2022/05/29 07:38:20;;;;;;;0.67;0.67;;;18.30;61.50;19.40;95900.00;;;;5044775;28;20244;-83
2022/05/29 07:40:47;;;;;;;1.40;0.97;;;18.40;61.00;19.50;95895.00;;;;5036861;28;20193;-83
2022/05/29 07:43:19;;;;;;;1.13;1.00;;;18.50;60.70;19.50;95882.00;;;;5041857;28;20199;-83
2022/05/29 07:46:39;;;;;;;1.97;1.07;;;18.60;59.90;19.60;95889.00;;;;5040335;28;20212;-84
2022/05/29 07:49:08;;;;;;;1.23;0.90;;;18.70;59.10;19.70;95898.00;;;;5048835;28;20567;-85
2022/05/29 07:55:43;;;;;;;1.10;0.83;;;18.90;58.60;19.80;95893.00;;;;5023992;28;20209;-85
2022/05/29 07:58:12;;;;;;;0.80;0.80;;;18.90;59.00;19.90;95897.00;;;;5048100;22;20230;-84
2022/05/29 08:00:41;;;;;;;0.97;0.80;;;19.00;59.30;19.90;95916.00;;;;5036204;28;20663;-83
2022/05/29 08:03:08;;;;;;;1.23;0.80;;;19.00;58.90;19.90;95911.00;;;;5025045;28;20214;-83
2022/05/29 08:05:38;;;;;;;1.23;1.10;;;19.10;58.70;20.00;95895.00;;;;5007759;28;20687;-80
2022/05/29 08:08:08;;;;;;;1.07;0.83;;;19.10;58.20;20.00;95898.00;;;;5002005;28;20285;-84
2022/05/29 08:10:41;;;;;;;1.30;0.90;;;19.10;58.30;20.10;95903.00;;;;5017821;28;20628;-83
2022/05/29 08:13:14;;;;;;;2.30;0.80;;;19.10;57.90;20.10;95908.00;;;;5014306;28;20218;-84
2022/05/29 08:15:41;;;;;;;2.67;0.93;;;19.20;58.20;20.30;95911.00;;;;5014230;28;20603;-83
2022/05/29 08:18:09;;;;;;;1.47;1.00;;;19.30;58.20;20.40;95911.00;;;;5014741;28;20200;-83
2022/05/29 08:20:38;;;;;;;1.07;0.80;;;19.40;57.30;20.40;95914.00;;;;5012722;28;20274;-84
2022/05/29 08:23:11;;;;;;;1.27;1.17;;;19.40;57.20;20.50;95927.00;;;;5012417;28;20218;-83
2022/05/29 08:31:08;;;;;;;0.77;0.77;;;19.70;57.50;21.30;95911.00;;;;5015479;28;20197;-84
2022/05/29 08:33:36;;;;;;;1.67;0.90;;;19.80;57.70;21.70;95905.00;;;;5008894;28;20520;-84
2022/05/29 08:36:16;;;;;;;1.30;0.93;;;20.00;57.80;22.10;95914.00;;;;5012068;28;20645;-84
2022/05/29 08:38:46;;;;;;;1.00;0.70;;;20.20;57.70;22.50;95922.00;;;;5013885;28;20293;-83
2022/05/29 08:41:18;;;;;;;2.20;0.80;;;20.40;57.90;22.90;95918.00;;;;4998757;28;20198;-84
2022/05/29 08:44:00;;;;;;;2.10;0.83;;;20.60;57.20;23.30;95923.00;;;;5012058;28;20214;-84
2022/05/29 08:46:36;;;;;;;1.03;0.80;;;20.90;56.50;23.70;95915.00;;;;5009949;28;20229;-85
2022/05/29 08:49:04;;;;;;;2.57;1.10;;;21.20;56.50;24.20;95927.00;;;;5005762;28;20272;-84
2022/05/29 08:52:06;;;;;;;1.10;0.70;;;21.40;56.90;24.80;95930.00;;;;5009948;28;20548;-84
2022/05/29 08:54:51;;;;;;;1.13;0.60;;;21.70;55.80;25.40;95921.00;;;;5011506;28;20194;-84
2022/05/29 08:57:52;;;;;;;0.80;0.70;;;22.20;55.40;26.00;95923.00;;;;4988478;28;20217;-84
2022/05/29 09:00:30;;;;;;;1.30;0.60;;;22.50;55.10;26.60;95916.00;;;;4992710;28;20261;-84
2022/05/29 09:03:19;;;;;;;0.73;0.53;;;23.00;55.70;27.10;95923.00;;;;4989424;28;20228;-82
2022/05/29 09:05:52;;;;;;;1.07;0.60;;;23.40;54.20;27.60;95933.00;;;;5003216;28;20206;-83
2022/05/29 09:08:26;;;;;;;0.93;0.60;;;23.80;53.50;27.90;95944.00;;;;4996534;28;20210;-83
2022/05/29 09:11:00;;;;;;;1.47;0.60;;;24.20;52.30;28.10;95947.00;;;;4976727;28;20210;-83
2022/05/29 09:13:37;;;;;;;1.00;0.60;;;24.60;51.60;28.40;95946.00;;;;4979179;28;20797;-83
2022/05/29 09:16:11;;;;;;;1.33;0.57;;;24.90;50.80;28.40;95957.00;;;;4996297;28;20202;-82
2022/05/29 09:18:44;;;;;;;0.50;0.40;;;25.20;48.90;28.10;95954.00;;;;4994406;28;20549;-83
2022/05/29 09:21:18;;;;;;;0.83;0.50;;;25.30;48.40;27.80;95951.00;;;;5000489;28;20203;-83
2022/05/29 09:23:58;;;;;;;2.27;1.00;;;25.40;47.70;27.80;95943.00;;;;4995208;28;20222;-82
2022/05/29 09:26:30;;;;;;;2.47;1.40;;;25.60;47.80;28.00;95944.00;;;;4995434;28;20222;-83
2022/05/29 09:28:58;;;;;;;4.63;2.77;;;25.80;47.70;28.10;95939.00;;;;4999859;28;20199;-83
2022/05/29 09:31:26;;;;;;;2.27;1.07;;;26.00;47.70;28.20;95937.00;;;;5002609;28;20199;-82
2022/05/29 09:33:54;;;;;;;2.00;1.03;;;26.30;47.60;28.50;95941.00;;;;5001527;28;20223;-82
2022/05/29 09:36:35;;;;;;;1.10;0.53;;;26.60;47.40;28.80;95949.00;;;;4997113;28;20202;-82
2022/05/29 09:39:11;;;;;;;2.05;0.80;;;27.00;46.40;29.20;95942.00;;;;4995659;28;20195;-82
2022/05/29 09:41:46;;;;;;;1.10;0.60;;;27.40;46.10;29.60;95935.00;;;;4997451;28;20436;-83
2022/05/29 09:44:16;;;;;;;0.65;0.52;;;27.90;46.40;30.00;95936.00;;;;4995563;28;20225;-83
2022/05/29 09:46:46;;;;;;;1.17;0.50;;;28.30;45.80;30.30;95942.00;;;;4998793;28;20222;-82
2022/05/29 09:52:21;;;;;;;0.65;0.43;;;29.20;44.90;31.00;95930.00;;;;4967201;28;20198;-83
2022/05/29 09:54:55;;;;;;;0.80;0.50;;;29.70;44.00;31.30;95933.00;;;;4998919;28;20198;-83
2022/05/29 09:57:28;;;;;;;0.68;0.40;;;30.10;43.00;31.50;95934.00;;;;4996040;28;20210;-83
2022/05/29 10:00:05;;;;;;;1.48;0.40;;;30.50;42.30;31.70;95935.00;;;;5015702;28;20748;-82
2022/05/29 10:02:39;;;;;;;0.68;0.43;;;30.80;40.30;31.80;95932.00;;;;5000962;28;20229;-82
2022/05/29 10:05:20;;;;;;;0.50;0.30;;;31.10;39.60;31.70;95933.00;;;;4993024;28;20198;-82
2022/05/29 10:07:48;;;;;;;0.98;0.50;;;31.30;39.80;31.70;95923.00;;;;4994167;28;20217;-82
2022/05/29 10:10:32;;;;;;;0.93;0.60;;;31.50;39.40;31.50;95917.00;;;;4998084;28;20225;-82
2022/05/29 10:13:02;;;;;;;0.60;0.50;;;31.50;37.90;31.30;95912.00;;;;4996337;28;20294;-83
2022/05/29 10:15:42;;;;;;;0.30;0.30;;;31.40;37.80;30.90;95914.00;;;;4976348;28;20290;-83
2022/05/29 10:18:34;;;;;;;1.25;0.50;;;31.10;36.20;30.50;95915.00;;;;4995550;28;20213;-83
2022/05/29 10:21:15;;;;;;;0.68;0.38;;;30.80;36.50;30.10;95915.00;;;;4989716;28;20210;-82
2022/05/29 10:23:50;;;;;;;0.98;0.40;;;30.40;36.40;29.70;95910.00;;;;4995369;28;20254;-83
2022/05/29 10:26:33;;;;;;;0.90;0.50;;;29.90;35.90;29.20;95910.00;;;;4996490;28;20296;-82
2022/05/29 10:29:02;;;;;;;1.05;0.50;;;29.40;36.00;28.80;95916.00;;;;4995069;28;20191;-83
2022/05/29 10:31:37;;;;;;;4.17;0.70;;;28.90;36.60;28.50;95909.00;;;;4994738;28;20195;-83
2022/05/29 10:34:08;;;;;;;0.90;0.40;;;28.50;36.30;28.10;95907.00;;;;4995469;28;20222;-82
2022/05/29 10:36:38;;;;;;;1.20;0.60;;;28.00;37.20;27.70;95896.00;;;;4992558;28;20204;-82
2022/05/29 10:39:12;;;;;;;1.27;0.50;;;27.50;36.40;27.20;95892.00;;;;4988983;28;20658;-82
2022/05/29 10:41:43;;;;;;;0.87;0.70;;;27.10;36.90;26.80;95889.00;;;;4989953;28;20210;-82
2022/05/29 10:44:12;;;;;;;1.80;0.53;;;26.60;37.60;26.40;95889.00;;;;4983206;28;20646;-83
2022/05/29 10:46:44;;;;;;;1.17;0.50;;;26.20;38.50;26.10;95882.00;;;;4980359;28;20580;-82
2022/05/29 10:49:28;;;;;;;0.50;0.40;;;25.80;39.00;25.90;95877.00;;;;4993231;28;20578;-82
2022/05/29 10:52:33;;;;;;;0.80;0.43;;;25.40;39.20;25.50;95867.00;;;;4992538;28;20195;-82
2022/05/29 10:55:33;;;;;;;0.97;0.40;;;25.10;39.30;25.20;95879.00;;;;4986972;28;20557;-82
2022/05/29 10:58:35;;;;;;;1.53;0.43;;;24.70;39.60;24.90;95874.00;;;;5002138;28;20220;-82
2022/05/29 11:04:51;;;;;;;1.00;0.40;;;24.10;40.70;24.30;95872.00;;;;5012340;28;20232;-83
2022/05/29 11:07:35;;;;;;;0.53;0.40;;;23.80;41.30;24.10;95870.00;;;;4991799;28;20697;-83
2022/05/29 11:10:36;;;;;;;1.43;0.43;;;23.50;42.10;23.90;95877.00;;;;5014128;28;20194;-82
2022/05/29 11:13:33;;;;;;;1.13;0.60;;;23.30;42.10;23.70;95881.00;;;;5013825;28;20304;-82
2022/05/29 11:16:16;;;;;;;0.77;0.40;;;23.10;42.20;23.60;95877.00;;;;5013377;28;20312;-82
2022/05/29 11:19:03;;;;;;;0.37;0.37;;;22.90;42.60;23.50;95875.00;;;;5021733;28;20190;-82
2022/05/29 11:21:54;;;;;;;0.60;0.30;;;22.80;43.00;23.40;95869.00;;;;5017345;28;20664;-82
2022/05/29 11:24:49;;;;;;;0.90;0.60;;;22.60;43.30;23.30;95868.00;;;;5007885;28;20226;-82
2022/05/29 11:27:42;;;;;;;0.60;0.60;;;22.50;43.40;23.20;95867.00;;;;5012008;28;20225;-82
2022/05/29 11:30:18;;;;;;;0.70;0.40;;;22.40;43.00;23.00;95859.00;;;;5009215;28;20200;-82
2022/05/29 11:33:13;;;;;;;1.67;0.53;;;22.20;43.40;22.90;95855.00;;;;5014629;28;20602;-82
2022/05/29 11:35:57;;;;;;;1.70;0.90;;;22.10;43.10;22.70;95850.00;;;;5007225;28;20210;-81
2022/05/29 11:38:54;;;;;;;2.13;0.87;;;22.00;43.50;22.60;95847.00;;;;5010298;28;20225;-82
2022/05/29 11:41:31;;;;;;;0.67;0.67;;;21.90;43.30;22.40;95839.00;;;;5010811;28;20190;-82
2022/05/29 11:44:04;;;;;;;0.50;0.50;;;21.70;43.80;22.30;95840.00;;;;5004398;28;20215;-82
2022/05/29 11:52:40;;;;;;;3.60;0.57;;;21.30;43.30;21.60;95855.00;;;;4971096;28;20696;-82
2022/05/29 11:55:16;;;;;;;1.97;0.80;;;21.10;44.70;21.40;95868.00;;;;5008986;28;20195;-82
2022/05/29 11:57:51;;;;;;;2.83;0.83;;;21.00;46.20;21.20;95886.00;;;;5004326;28;20638;-83
2022/05/29 12:00:36;;;;;;;2.07;0.80;;;20.80;48.40;21.00;95903.00;;;;4983534;28;20221;-82
2022/05/29 12:03:19;;;;;;;2.17;0.80;;;20.60;50.10;20.80;95903.00;;;;4986857;28;20221;-82
2022/05/29 12:05:54;;;;;;;2.37;0.90;;;20.40;52.60;20.40;95921.00;;;;4992358;28;20326;-83